createdAt,value
2022-08-28T10:39:56.071Z,19.60
2022-08-28T10:42:46.957Z,20.71
2022-08-28T10:45:22.528Z,21.35
2022-08-28T10:48:02.887Z,21.79
2022-08-28T10:50:44.270Z,22.22
2022-08-28T10:53:21.124Z,22.34
2022-08-28T10:56:01.484Z,22.07
2022-08-28T10:58:36.007Z,21.63
2022-08-28T11:01:13.827Z,21.59
2022-08-28T11:03:53.841Z,21.62
2022-08-28T11:06:50.097Z,20.98
2022-08-28T11:09:30.144Z,20.94
2022-08-28T11:12:11.145Z,20.79
2022-08-28T11:14:48.487Z,20.68
2022-08-28T11:17:26.624Z,21.15
2022-08-28T11:20:14.654Z,21.97
2022-08-28T11:22:54.290Z,22.35
2022-08-28T11:25:32.394Z,21.69
2022-08-28T11:28:25.823Z,21.44
2022-08-28T11:31:07.677Z,21.37
2022-08-28T11:34:35.862Z,21.76
2022-08-28T11:37:05.783Z,21.49
2022-08-28T11:43:41.765Z,21.12
2022-08-28T11:46:39.160Z,21.06
2022-08-28T11:54:28.509Z,20.64
2022-08-28T12:01:10.477Z,20.72
2022-08-28T12:03:56.689Z,20.46
2022-08-28T12:06:51.624Z,20.30
2022-08-28T12:09:51.530Z,20.11
2022-08-28T12:12:24.809Z,20.02
2022-08-28T12:14:57.849Z,19.90
2022-08-28T12:17:47.894Z,19.80
2022-08-28T12:20:35.368Z,19.66
2022-08-28T12:23:34.104Z,19.63
2022-08-28T12:26:59.926Z,19.35
2022-08-28T12:29:53.638Z,19.25
2022-08-28T12:33:05.263Z,19.22
2022-08-28T12:35:44.261Z,19.18
2022-08-28T12:42:03.607Z,19.45
2022-08-28T12:44:34.641Z,19.41
2022-08-28T12:47:04.507Z,19.40
2022-08-28T12:50:26.034Z,19.27
2022-08-28T12:52:59.334Z,19.08
2022-08-28T12:55:30.020Z,19.02
2022-08-28T12:57:59.867Z,18.94
2022-08-28T13:00:37.275Z,19.04
2022-08-28T13:03:27.508Z,18.83
2022-08-28T13:06:10.647Z,18.73
2022-08-28T13:08:41.118Z,18.64
2022-08-28T13:11:11.233Z,18.51
2022-08-28T13:13:50.569Z,18.42
2022-08-28T13:16:38.800Z,18.41
2022-08-28T13:19:09.413Z,18.35
2022-08-28T13:21:53.892Z,18.13
2022-08-28T13:24:24.038Z,18.12
2022-08-28T13:27:13.880Z,18.05
2022-08-28T13:30:01.351Z,18.01
2022-08-28T13:32:34.631Z,17.98
2022-08-28T13:35:17.949Z,17.90
2022-08-28T13:38:00.045Z,17.87
2022-08-28T13:40:57.398Z,17.80
2022-08-28T13:43:31.203Z,17.71
2022-08-28T13:46:01.114Z,17.64
2022-08-28T13:48:31.515Z,17.42
2022-08-28T13:51:10.259Z,17.33
2022-08-28T13:53:41.154Z,17.23
2022-08-28T13:56:11.057Z,17.21
2022-08-28T13:58:40.919Z,17.06
2022-08-28T14:01:13.071Z,16.94
2022-08-28T14:03:43.488Z,16.79
2022-08-28T14:06:19.740Z,16.95
2022-08-28T14:08:52.834Z,16.89
2022-08-28T14:11:23.720Z,16.73
2022-08-28T14:13:55.710Z,16.77
2022-08-28T14:16:27.292Z,16.91
2022-08-28T14:18:57.512Z,16.96
2022-08-28T14:21:27.257Z,16.88
2022-08-28T14:23:57.244Z,16.81
2022-08-28T14:26:28.059Z,16.82
2022-08-28T14:29:01.383Z,16.84
2022-08-28T14:31:32.910Z,16.79
2022-08-28T14:34:03.269Z,16.71
2022-08-28T14:36:34.449Z,16.69
2022-08-28T14:39:06.941Z,16.67
2022-08-28T14:41:38.041Z,16.50
2022-08-28T14:44:08.205Z,16.44
2022-08-28T14:46:39.485Z,16.56
2022-08-28T14:49:12.704Z,16.56
2022-08-28T14:51:45.248Z,16.54
2022-08-28T14:54:18.382Z,16.45
2022-08-28T14:56:49.530Z,16.50
2022-08-28T14:59:24.373Z,16.40
2022-08-28T15:01:57.199Z,16.44
2022-08-28T15:04:29.688Z,16.47
2022-08-28T15:07:01.377Z,16.43
2022-08-28T15:09:32.193Z,16.46
2022-08-28T15:12:02.403Z,16.46
2022-08-28T15:14:32.882Z,16.47
2022-08-28T15:17:03.295Z,16.41
2022-08-28T15:19:33.337Z,16.37
2022-08-28T15:22:05.752Z,16.31
2022-08-28T15:24:35.927Z,16.38
2022-08-28T15:27:06.516Z,16.42
2022-08-28T15:29:36.297Z,16.40
2022-08-28T15:32:06.383Z,16.34
2022-08-28T15:34:36.738Z,16.39
2022-08-28T15:37:08.494Z,16.37
2022-08-28T15:39:56.798Z,16.41
2022-08-28T15:42:26.906Z,16.28
2022-08-28T15:45:00.056Z,16.26
2022-08-28T15:47:29.858Z,16.30
2022-08-28T15:50:00.323Z,16.14
2022-08-28T15:52:30.385Z,16.14
2022-08-28T15:55:01.850Z,16.19
2022-08-28T15:57:31.848Z,16.19
2022-08-28T16:00:01.710Z,16.17
2022-08-28T16:02:34.311Z,16.24
2022-08-28T16:05:04.486Z,16.19
2022-08-28T16:07:34.313Z,16.25
2022-08-28T16:10:08.334Z,16.14
2022-08-28T16:12:42.426Z,16.18
2022-08-28T16:15:13.135Z,16.25
2022-08-28T16:17:42.924Z,16.21
2022-08-28T16:20:14.001Z,16.18
2022-08-28T16:22:44.212Z,15.98
2022-08-28T16:25:14.415Z,15.97
2022-08-28T16:27:44.326Z,16.14
2022-08-28T16:30:16.120Z,15.98
2022-08-28T16:32:46.898Z,16.07
2022-08-28T16:35:17.963Z,16.11
2022-08-28T16:37:48.200Z,15.94
2022-08-28T16:40:18.227Z,15.86
2022-08-28T16:42:51.695Z,15.89
2022-08-28T16:45:22.456Z,15.82
2022-08-28T16:47:52.725Z,15.81
2022-08-28T16:50:22.850Z,15.73
2022-08-28T16:52:52.750Z,15.72
2022-08-28T16:55:22.773Z,15.69
2022-08-28T16:57:52.593Z,15.59
2022-08-28T17:00:24.267Z,15.63
2022-08-28T17:02:55.348Z,15.58
2022-08-28T17:05:26.405Z,15.57
2022-08-28T17:07:56.732Z,15.49
2022-08-28T17:10:27.036Z,15.51
2022-08-28T17:12:57.981Z,15.47
2022-08-28T17:15:28.175Z,15.44
2022-08-28T17:17:59.273Z,15.60
2022-08-28T17:20:47.720Z,15.57
2022-08-28T17:23:18.176Z,15.65
2022-08-28T17:25:47.906Z,15.53
2022-08-28T17:28:18.118Z,15.65
2022-08-28T17:30:47.902Z,15.67
2022-08-28T17:33:17.758Z,15.56
2022-08-28T17:35:50.345Z,15.68
2022-08-28T17:38:22.178Z,15.61
2022-08-28T17:40:51.834Z,15.55
2022-08-28T17:43:22.949Z,15.63
2022-08-28T17:45:52.889Z,15.60
2022-08-28T17:48:22.565Z,15.65
2022-08-28T17:50:52.751Z,15.62
2022-08-28T17:53:27.587Z,15.65
2022-08-28T17:55:57.970Z,15.68
2022-08-28T17:58:27.698Z,15.67
2022-08-28T18:00:57.446Z,15.56
2022-08-28T18:03:27.956Z,15.52
2022-08-28T18:05:58.760Z,15.42
2022-08-28T18:08:29.466Z,15.45
2022-08-28T18:11:00.104Z,15.47
2022-08-28T18:13:29.988Z,15.47
2022-08-28T18:15:59.970Z,15.41
2022-08-28T18:18:36.430Z,15.53
2022-08-28T18:21:06.909Z,15.50
2022-08-28T18:23:36.686Z,15.59
2022-08-28T18:26:06.384Z,15.52
2022-08-28T18:28:37.663Z,15.54
2022-08-28T18:31:09.413Z,15.58
2022-08-28T18:33:39.617Z,15.51
2022-08-28T18:36:12.289Z,15.58
2022-08-28T18:38:44.066Z,15.56
2022-08-28T18:41:14.437Z,15.47
2022-08-28T18:43:44.634Z,15.40
2022-08-28T18:46:15.587Z,15.39
2022-08-28T18:48:45.695Z,15.43
2022-08-28T18:51:15.977Z,15.48
2022-08-28T18:53:52.236Z,15.42
2022-08-28T18:56:21.951Z,15.34
2022-08-28T18:58:53.212Z,15.27
2022-08-28T19:01:23.380Z,15.09
2022-08-28T19:03:53.350Z,15.17
2022-08-28T19:06:23.680Z,15.10
2022-08-28T19:08:53.661Z,15.10
2022-08-28T19:11:23.284Z,15.02
2022-08-28T19:13:53.254Z,14.98
2022-08-28T19:16:23.147Z,14.95
2022-08-28T19:18:56.023Z,14.90
2022-08-28T19:21:27.698Z,14.76
2022-08-28T19:23:58.261Z,14.90
2022-08-28T19:26:29.984Z,15.00
2022-08-28T19:28:59.879Z,14.96
2022-08-28T19:31:29.901Z,15.10
2022-08-28T19:34:00.096Z,15.14
2022-08-28T19:36:31.731Z,15.06
2022-08-28T19:39:02.400Z,14.96
2022-08-28T19:41:33.739Z,14.85
2022-08-28T19:44:04.752Z,14.87
2022-08-28T19:46:36.651Z,14.70
2022-08-28T19:49:09.197Z,14.82
2022-08-28T19:51:40.186Z,14.82
2022-08-28T19:54:15.640Z,14.80
2022-08-28T19:56:45.748Z,14.72
2022-08-28T19:59:15.629Z,14.59
2022-08-28T20:01:47.586Z,14.62
2022-08-28T20:04:19.124Z,14.62
2022-08-28T20:06:49.419Z,14.67
2022-08-28T20:09:20.187Z,14.72
2022-08-28T20:11:51.052Z,14.95
2022-08-28T20:14:22.098Z,15.03
2022-08-28T20:16:53.452Z,15.01
2022-08-28T20:19:24.777Z,14.99
2022-08-28T20:21:54.986Z,14.92
2022-08-28T20:24:26.353Z,14.92
2022-08-28T20:26:56.255Z,14.81
2022-08-28T20:29:25.973Z,14.92
2022-08-28T20:31:56.554Z,14.86
2022-08-28T20:34:27.004Z,14.84
2022-08-28T20:36:56.966Z,14.91
2022-08-28T20:39:27.153Z,14.73
2022-08-28T20:41:57.131Z,14.91
2022-08-28T20:44:27.154Z,14.80
2022-08-28T20:46:56.908Z,14.79
2022-08-28T20:49:26.853Z,14.75
2022-08-28T20:52:02.253Z,14.91
2022-08-28T20:54:38.569Z,14.88
2022-08-28T20:57:12.073Z,14.80
2022-08-28T20:59:44.748Z,14.80
2022-08-28T21:02:21.860Z,14.76
2022-08-28T21:04:52.281Z,14.76
2022-08-28T21:07:24.296Z,14.80
2022-08-28T21:10:05.552Z,14.76
2022-08-28T21:12:39.330Z,14.78
2022-08-28T21:15:12.450Z,14.69
2022-08-28T21:17:43.428Z,14.57
2022-08-28T21:20:17.580Z,14.69
2022-08-28T21:22:48.371Z,14.65
2022-08-28T21:25:19.411Z,14.84
2022-08-28T21:27:49.968Z,14.78
2022-08-28T21:30:22.108Z,14.81
2022-08-28T21:32:52.952Z,14.73
2022-08-28T21:35:22.897Z,14.79
2022-08-28T21:37:53.726Z,14.85
2022-08-28T21:40:23.858Z,14.82
2022-08-28T21:42:54.377Z,14.83
2022-08-28T21:45:24.041Z,14.76
2022-08-28T21:47:53.899Z,14.84
2022-08-28T21:50:23.648Z,14.76
2022-08-28T21:52:53.709Z,14.71
2022-08-28T21:55:23.771Z,14.69
2022-08-28T21:57:53.909Z,14.66
2022-08-28T22:00:25.510Z,14.62
2022-08-28T22:02:55.441Z,14.80
2022-08-28T22:05:25.294Z,14.74
2022-08-28T22:07:55.050Z,14.84
2022-08-28T22:10:26.982Z,14.83
2022-08-28T22:12:57.882Z,14.89
2022-08-28T22:15:27.744Z,14.80
2022-08-28T22:17:57.588Z,14.86
2022-08-28T22:20:28.734Z,14.89
2022-08-28T22:23:14.442Z,14.81
2022-08-28T22:25:48.292Z,14.87
2022-08-28T22:28:18.159Z,14.97
2022-08-28T22:30:48.000Z,15.00
2022-08-28T22:33:19.240Z,15.14
2022-08-28T22:35:51.253Z,15.02
2022-08-28T22:38:23.349Z,14.96
2022-08-28T22:40:53.715Z,14.81
2022-08-28T22:43:24.276Z,14.73
2022-08-28T22:45:54.239Z,14.67
2022-08-28T22:48:23.877Z,14.65
2022-08-28T22:51:01.903Z,14.73
2022-08-28T22:53:32.419Z,14.61
2022-08-28T22:56:03.097Z,14.71
2022-08-28T22:58:34.345Z,14.56
2022-08-28T23:01:10.520Z,14.51
2022-08-28T23:03:40.918Z,14.49
2022-08-28T23:06:11.115Z,14.65
2022-08-28T23:08:41.040Z,14.51
2022-08-28T23:11:12.077Z,14.47
2022-08-28T23:13:42.568Z,14.36
2022-08-28T23:16:14.434Z,14.52
2022-08-28T23:19:06.695Z,14.34
2022-08-28T23:21:34.464Z,14.43
2022-08-28T23:24:04.227Z,14.50
2022-08-28T23:26:33.949Z,14.52
2022-08-28T23:29:04.350Z,14.70
2022-08-28T23:31:34.264Z,14.66
2022-08-28T23:34:05.993Z,14.62
2022-08-28T23:36:36.717Z,14.57
2022-08-28T23:39:07.052Z,14.62
2022-08-28T23:41:37.167Z,14.67
2022-08-28T23:44:08.943Z,14.69
2022-08-28T23:46:41.071Z,14.66
2022-08-28T23:49:13.140Z,14.60
2022-08-28T23:51:43.820Z,14.45
2022-08-28T23:54:14.923Z,14.55
2022-08-28T23:56:45.452Z,14.64
2022-08-28T23:59:15.255Z,14.57
